sensor_id;sensor_type;location;lat;lon;timestamp;pressure;altitude;pressure_sealevel;temperature;humidity
60646;BME280;46462;32.608;-117.032;2023-05-21T00:00:02;99618.97;;;24.43;49.23
60646;BME280;46462;32.608;-117.032;2023-05-21T00:02:32;99621.26;;;24.44;49.19
60646;BME280;46462;32.608;-117.032;2023-05-21T00:05:08;99624.60;;;24.41;49.28
60646;BME280;46462;32.608;-117.032;2023-05-21T00:07:39;99624.31;;;24.42;49.29
60646;BME280;46462;32.608;-117.032;2023-05-21T00:10:10;99619.45;;;24.45;49.33
60646;BME280;46462;32.608;-117.032;2023-05-21T00:12:40;99620.18;;;24.46;49.22
60646;BME280;46462;32.608;-117.032;2023-05-21T00:15:11;99620.73;;;24.46;49.22
60646;BME280;46462;32.608;-117.032;2023-05-21T00:17:42;99624.06;;;24.46;49.21
60646;BME280;46462;32.608;-117.032;2023-05-21T00:20:12;99621.66;;;24.47;49.19
60646;BME280;46462;32.608;-117.032;2023-05-21T00:22:43;99621.14;;;24.59;48.87
60646;BME280;46462;32.608;-117.032;2023-05-21T00:25:14;99622.12;;;24.53;49.05
60646;BME280;46462;32.608;-117.032;2023-05-21T00:27:44;99618.07;;;24.54;49.06
60646;BME280;46462;32.608;-117.032;2023-05-21T00:30:15;99615.65;;;24.50;49.14
60646;BME280;46462;32.608;-117.032;2023-05-21T00:32:46;99615.88;;;24.53;49.05
60646;BME280;46462;32.608;-117.032;2023-05-21T00:35:17;99617.36;;;24.50;49.20
60646;BME280;46462;32.608;-117.032;2023-05-21T00:37:47;99620.80;;;24.47;49.27
60646;BME280;46462;32.608;-117.032;2023-05-21T00:40:18;99624.76;;;24.45;49.16
60646;BME280;46462;32.608;-117.032;2023-05-21T00:42:48;99627.58;;;24.46;49.29
60646;BME280;46462;32.608;-117.032;2023-05-21T00:45:19;99629.74;;;24.45;49.31
60646;BME280;46462;32.608;-117.032;2023-05-21T00:47:50;99627.79;;;24.49;49.18
60646;BME280;46462;32.608;-117.032;2023-05-21T00:50:21;99623.05;;;24.43;49.27
60646;BME280;46462;32.608;-117.032;2023-05-21T00:52:51;99625.15;;;24.48;49.18
60646;BME280;46462;32.608;-117.032;2023-05-21T00:55:22;99621.16;;;24.47;49.27
60646;BME280;46462;32.608;-117.032;2023-05-21T00:57:52;99615.39;;;24.53;49.04
60646;BME280;46462;32.608;-117.032;2023-05-21T01:00:23;99617.56;;;24.51;49.19
60646;BME280;46462;32.608;-117.032;2023-05-21T01:02:54;99624.83;;;24.54;49.07
60646;BME280;46462;32.608;-117.032;2023-05-21T01:05:24;99623.79;;;24.57;49.05
60646;BME280;46462;32.608;-117.032;2023-05-21T01:07:56;99619.10;;;24.53;49.13
60646;BME280;46462;32.608;-117.032;2023-05-21T01:10:26;99622.53;;;24.50;49.12
60646;BME280;46462;32.608;-117.032;2023-05-21T01:12:57;99621.82;;;24.54;49.06
60646;BME280;46462;32.608;-117.032;2023-05-21T01:15:27;99622.04;;;24.58;48.97
60646;BME280;46462;32.608;-117.032;2023-05-21T01:17:58;99625.97;;;24.54;48.99
60646;BME280;46462;32.608;-117.032;2023-05-21T01:20:29;99625.15;;;24.53;49.06
60646;BME280;46462;32.608;-117.032;2023-05-21T01:22:59;99622.68;;;24.51;49.01
60646;BME280;46462;32.608;-117.032;2023-05-21T01:25:30;99620.34;;;24.53;49.05
60646;BME280;46462;32.608;-117.032;2023-05-21T01:28:00;99619.57;;;24.57;48.99
60646;BME280;46462;32.608;-117.032;2023-05-21T01:30:31;99613.99;;;24.53;49.03
60646;BME280;46462;32.608;-117.032;2023-05-21T01:33:04;99617.03;;;24.56;48.92
60646;BME280;46462;32.608;-117.032;2023-05-21T01:35:35;99619.97;;;24.57;48.98
60646;BME280;46462;32.608;-117.032;2023-05-21T01:38:11;99617.08;;;24.50;49.13
60646;BME280;46462;32.608;-117.032;2023-05-21T01:40:38;99617.14;;;24.47;49.18
60646;BME280;46462;32.608;-117.032;2023-05-21T01:43:06;99617.77;;;24.46;49.20
60646;BME280;46462;32.608;-117.032;2023-05-21T01:45:38;99618.31;;;24.40;49.39
60646;BME280;46462;32.608;-117.032;2023-05-21T01:48:08;99609.09;;;24.44;49.26
60646;BME280;46462;32.608;-117.032;2023-05-21T01:50:38;99604.74;;;24.40;49.36
60646;BME280;46462;32.608;-117.032;2023-05-21T01:53:07;99605.68;;;24.45;49.11
60646;BME280;46462;32.608;-117.032;2023-05-21T01:55:37;99608.60;;;24.45;49.21
60646;BME280;46462;32.608;-117.032;2023-05-21T01:58:08;99609.53;;;24.41;49.29
60646;BME280;46462;32.608;-117.032;2023-05-21T02:00:39;99606.74;;;24.47;49.18
60646;BME280;46462;32.608;-117.032;2023-05-21T02:03:10;99607.73;;;24.47;49.13
60646;BME280;46462;32.608;-117.032;2023-05-21T02:05:40;99605.32;;;24.49;49.07
60646;BME280;46462;32.608;-117.032;2023-05-21T02:08:10;99602.22;;;24.47;49.10
60646;BME280;46462;32.608;-117.032;2023-05-21T02:10:41;99603.54;;;24.47;49.10
60646;BME280;46462;32.608;-117.032;2023-05-21T02:13:12;99604.03;;;24.44;49.20
60646;BME280;46462;32.608;-117.032;2023-05-21T02:15:42;99605.64;;;24.46;49.08
60646;BME280;46462;32.608;-117.032;2023-05-21T02:18:13;99608.42;;;24.47;49.09
60646;BME280;46462;32.608;-117.032;2023-05-21T02:20:44;99608.80;;;24.45;49.10
60646;BME280;46462;32.608;-117.032;2023-05-21T02:23:15;99604.86;;;24.44;49.17
60646;BME280;46462;32.608;-117.032;2023-05-21T02:25:45;99607.05;;;24.47;49.10
60646;BME280;46462;32.608;-117.032;2023-05-21T02:28:15;99610.01;;;24.52;48.98
60646;BME280;46462;32.608;-117.032;2023-05-21T02:30:46;99610.53;;;24.53;48.98
60646;BME280;46462;32.608;-117.032;2023-05-21T02:33:17;99611.80;;;24.48;49.02
60646;BME280;46462;32.608;-117.032;2023-05-21T02:35:48;99610.83;;;24.47;49.06
60646;BME280;46462;32.608;-117.032;2023-05-21T02:38:18;99610.48;;;24.51;49.03
60646;BME280;46462;32.608;-117.032;2023-05-21T02:40:49;99616.83;;;24.45;49.15
60646;BME280;46462;32.608;-117.032;2023-05-21T02:43:20;99615.98;;;24.47;49.06
60646;BME280;46462;32.608;-117.032;2023-05-21T02:45:50;99615.67;;;24.45;49.15
60646;BME280;46462;32.608;-117.032;2023-05-21T02:48:21;99613.53;;;24.43;49.20
60646;BME280;46462;32.608;-117.032;2023-05-21T02:50:52;99617.57;;;24.45;49.14
60646;BME280;46462;32.608;-117.032;2023-05-21T02:53:22;99614.74;;;24.50;48.97
60646;BME280;46462;32.608;-117.032;2023-05-21T02:55:53;99612.22;;;24.46;49.10
60646;BME280;46462;32.608;-117.032;2023-05-21T02:58:24;99613.78;;;24.45;49.10
60646;BME280;46462;32.608;-117.032;2023-05-21T03:00:55;99619.83;;;24.51;48.88
60646;BME280;46462;32.608;-117.032;2023-05-21T03:03:25;99621.32;;;24.48;48.99
60646;BME280;46462;32.608;-117.032;2023-05-21T03:05:56;99624.07;;;24.46;49.06
60646;BME280;46462;32.608;-117.032;2023-05-21T03:08:27;99625.69;;;24.45;49.06
60646;BME280;46462;32.608;-117.032;2023-05-21T03:10:58;99625.21;;;24.49;48.91
60646;BME280;46462;32.608;-117.032;2023-05-21T03:13:28;99622.07;;;24.45;49.07
60646;BME280;46462;32.608;-117.032;2023-05-21T03:15:59;99620.91;;;24.46;49.03
60646;BME280;46462;32.608;-117.032;2023-05-21T03:18:29;99620.41;;;24.53;48.83
60646;BME280;46462;32.608;-117.032;2023-05-21T03:21:00;99624.72;;;24.47;49.00
60646;BME280;46462;32.608;-117.032;2023-05-21T03:23:30;99628.99;;;24.51;48.89
60646;BME280;46462;32.608;-117.032;2023-05-21T03:26:01;99629.72;;;24.49;48.96
60646;BME280;46462;32.608;-117.032;2023-05-21T03:28:32;99629.49;;;24.48;48.97
60646;BME280;46462;32.608;-117.032;2023-05-21T03:31:02;99630.19;;;24.48;48.96
60646;BME280;46462;32.608;-117.032;2023-05-21T03:33:33;99630.60;;;24.55;48.79
60646;BME280;46462;32.608;-117.032;2023-05-21T03:36:04;99636.87;;;24.53;48.86
60646;BME280;46462;32.608;-117.032;2023-05-21T03:38:34;99635.64;;;24.50;48.85
60646;BME280;46462;32.608;-117.032;2023-05-21T03:41:06;99634.62;;;24.51;48.78
60646;BME280;46462;32.608;-117.032;2023-05-21T03:43:36;99633.95;;;24.48;48.84
60646;BME280;46462;32.608;-117.032;2023-05-21T03:46:06;99633.86;;;24.42;49.10
60646;BME280;46462;32.608;-117.032;2023-05-21T03:48:37;99631.95;;;24.40;49.11
60646;BME280;46462;32.608;-117.032;2023-05-21T03:51:08;99634.62;;;24.41;49.11
60646;BME280;46462;32.608;-117.032;2023-05-21T03:53:38;99638.29;;;24.42;49.03
60646;BME280;46462;32.608;-117.032;2023-05-21T03:56:09;99638.10;;;24.47;48.88
60646;BME280;46462;32.608;-117.032;2023-05-21T03:58:40;99642.15;;;24.49;48.81
60646;BME280;46462;32.608;-117.032;2023-05-21T04:01:10;99636.70;;;24.47;48.86
60646;BME280;46462;32.608;-117.032;2023-05-21T04:03:41;99635.28;;;24.45;48.94
60646;BME280;46462;32.608;-117.032;2023-05-21T04:06:12;99635.50;;;24.50;48.80
60646;BME280;46462;32.608;-117.032;2023-05-21T04:08:43;99630.14;;;24.46;48.88
60646;BME280;46462;32.608;-117.032;2023-05-21T04:11:13;99625.93;;;24.52;48.71
60646;BME280;46462;32.608;-117.032;2023-05-21T04:13:44;99629.18;;;24.44;48.94
60646;BME280;46462;32.608;-117.032;2023-05-21T04:16:15;99634.00;;;24.48;48.82
60646;BME280;46462;32.608;-117.032;2023-05-21T04:18:45;99643.00;;;24.46;48.86
60646;BME280;46462;32.608;-117.032;2023-05-21T04:21:16;99652.95;;;24.43;48.96
60646;BME280;46462;32.608;-117.032;2023-05-21T04:23:47;99655.32;;;24.44;48.90
60646;BME280;46462;32.608;-117.032;2023-05-21T04:26:17;99657.48;;;24.49;48.78
60646;BME280;46462;32.608;-117.032;2023-05-21T04:28:48;99663.94;;;24.52;48.69
60646;BME280;46462;32.608;-117.032;2023-05-21T04:31:19;99672.33;;;24.44;48.94
60646;BME280;46462;32.608;-117.032;2023-05-21T04:33:49;99676.15;;;24.45;48.89
60646;BME280;46462;32.608;-117.032;2023-05-21T04:36:20;99677.66;;;24.45;48.82
60646;BME280;46462;32.608;-117.032;2023-05-21T04:38:51;99681.19;;;24.44;48.89
60646;BME280;46462;32.608;-117.032;2023-05-21T04:41:21;99683.76;;;24.40;49.02
60646;BME280;46462;32.608;-117.032;2023-05-21T04:43:52;99677.94;;;24.34;49.14
60646;BME280;46462;32.608;-117.032;2023-05-21T04:46:23;99679.11;;;24.36;49.13
60646;BME280;46462;32.608;-117.032;2023-05-21T04:48:53;99688.56;;;24.36;49.12
60646;BME280;46462;32.608;-117.032;2023-05-21T04:51:24;99689.70;;;24.40;49.00
60646;BME280;46462;32.608;-117.032;2023-05-21T04:53:55;99685.74;;;24.36;49.06
60646;BME280;46462;32.608;-117.032;2023-05-21T04:56:25;99685.74;;;24.41;48.98
60646;BME280;46462;32.608;-117.032;2023-05-21T04:58:56;99685.92;;;24.37;49.04
60646;BME280;46462;32.608;-117.032;2023-05-21T05:01:27;99684.81;;;24.42;48.90
60646;BME280;46462;32.608;-117.032;2023-05-21T05:03:57;99688.67;;;24.34;49.08
60646;BME280;46462;32.608;-117.032;2023-05-21T05:06:28;99686.01;;;24.43;48.84
60646;BME280;46462;32.608;-117.032;2023-05-21T05:08:59;99685.68;;;24.41;48.94
60646;BME280;46462;32.608;-117.032;2023-05-21T05:11:29;99676.29;;;24.41;48.91
60646;BME280;46462;32.608;-117.032;2023-05-21T05:14:00;99667.95;;;24.42;48.83
60646;BME280;46462;32.608;-117.032;2023-05-21T05:16:31;99665.32;;;24.48;48.69
60646;BME280;46462;32.608;-117.032;2023-05-21T05:19:01;99663.11;;;24.42;48.79
60646;BME280;46462;32.608;-117.032;2023-05-21T05:21:32;99667.24;;;24.39;48.87
60646;BME280;46462;32.608;-117.032;2023-05-21T05:24:03;99670.34;;;24.39;48.89
60646;BME280;46462;32.608;-117.032;2023-05-21T05:26:33;99665.89;;;24.37;48.95
60646;BME280;46462;32.608;-117.032;2023-05-21T05:29:04;99663.13;;;24.40;48.85
60646;BME280;46462;32.608;-117.032;2023-05-21T05:31:35;99661.38;;;24.40;48.84
60646;BME280;46462;32.608;-117.032;2023-05-21T05:34:06;99662.47;;;24.39;48.85
60646;BME280;46462;32.608;-117.032;2023-05-21T05:36:36;99658.94;;;24.36;48.88
60646;BME280;46462;32.608;-117.032;2023-05-21T05:39:07;99657.17;;;24.36;48.87
60646;BME280;46462;32.608;-117.032;2023-05-21T05:41:37;99651.88;;;24.34;48.94
60646;BME280;46462;32.608;-117.032;2023-05-21T05:44:08;99651.74;;;24.34;48.90
60646;BME280;46462;32.608;-117.032;2023-05-21T05:46:39;99650.96;;;24.31;48.98
60646;BME280;46462;32.608;-117.032;2023-05-21T05:49:10;99649.78;;;24.33;48.91
60646;BME280;46462;32.608;-117.032;2023-05-21T05:51:40;99648.23;;;24.31;48.95
60646;BME280;46462;32.608;-117.032;2023-05-21T05:54:11;99644.94;;;24.28;49.03
60646;BME280;46462;32.608;-117.032;2023-05-21T05:56:41;99644.70;;;24.35;48.85
60646;BME280;46462;32.608;-117.032;2023-05-21T05:59:12;99646.41;;;24.29;48.91
60646;BME280;46462;32.608;-117.032;2023-05-21T06:01:43;99643.43;;;24.33;48.84
60646;BME280;46462;32.608;-117.032;2023-05-21T06:04:14;99639.90;;;24.34;48.82
60646;BME280;46462;32.608;-117.032;2023-05-21T06:06:44;99638.82;;;24.34;48.78
60646;BME280;46462;32.608;-117.032;2023-05-21T06:09:15;99638.50;;;24.33;48.79
60646;BME280;46462;32.608;-117.032;2023-05-21T06:11:46;99633.32;;;24.32;48.77
60646;BME280;46462;32.608;-117.032;2023-05-21T06:14:17;99634.71;;;24.33;48.74
60646;BME280;46462;32.608;-117.032;2023-05-21T06:16:47;99632.89;;;24.26;48.90
60646;BME280;46462;32.608;-117.032;2023-05-21T06:19:18;99637.25;;;24.29;48.81
60646;BME280;46462;32.608;-117.032;2023-05-21T06:21:49;99637.54;;;24.27;48.82
60646;BME280;46462;32.608;-117.032;2023-05-21T06:24:19;99637.88;;;24.28;48.77
60646;BME280;46462;32.608;-117.032;2023-05-21T06:26:50;99642.33;;;24.26;48.85
60646;BME280;46462;32.608;-117.032;2023-05-21T06:29:20;99645.44;;;24.24;48.84
60646;BME280;46462;32.608;-117.032;2023-05-21T06:31:51;99652.09;;;24.30;48.65
60646;BME280;46462;32.608;-117.032;2023-05-21T06:34:22;99648.93;;;24.29;48.72
60646;BME280;46462;32.608;-117.032;2023-05-21T06:36:52;99642.70;;;24.28;48.71
60646;BME280;46462;32.608;-117.032;2023-05-21T06:39:23;99647.73;;;24.27;48.70
60646;BME280;46462;32.608;-117.032;2023-05-21T06:41:54;99645.41;;;24.24;48.75
60646;BME280;46462;32.608;-117.032;2023-05-21T06:44:24;99645.96;;;24.26;48.66
60646;BME280;46462;32.608;-117.032;2023-05-21T06:46:55;99656.17;;;24.29;48.57
60646;BME280;46462;32.608;-117.032;2023-05-21T06:49:26;99655.26;;;24.30;48.57
60646;BME280;46462;32.608;-117.032;2023-05-21T06:51:57;99647.42;;;24.34;48.37
60646;BME280;46462;32.608;-117.032;2023-05-21T06:54:27;99648.49;;;24.34;48.38
60646;BME280;46462;32.608;-117.032;2023-05-21T06:56:58;99649.22;;;24.36;48.32
60646;BME280;46462;32.608;-117.032;2023-05-21T06:59:28;99646.41;;;24.36;48.23
60646;BME280;46462;32.608;-117.032;2023-05-21T07:01:59;99643.27;;;24.34;48.33
60646;BME280;46462;32.608;-117.032;2023-05-21T07:04:30;99647.66;;;24.31;48.34
60646;BME280;46462;32.608;-117.032;2023-05-21T07:07:01;99645.10;;;24.28;48.45
60646;BME280;46462;32.608;-117.032;2023-05-21T07:09:31;99639.13;;;24.30;48.36
60646;BME280;46462;32.608;-117.032;2023-05-21T07:12:02;99639.64;;;24.32;48.24
60646;BME280;46462;32.608;-117.032;2023-05-21T07:14:33;99646.49;;;24.33;48.24
60646;BME280;46462;32.608;-117.032;2023-05-21T07:17:04;99645.63;;;24.30;48.25
60646;BME280;46462;32.608;-117.032;2023-05-21T07:19:34;99640.36;;;24.26;48.32
60646;BME280;46462;32.608;-117.032;2023-05-21T07:22:05;99641.80;;;24.30;48.26
60646;BME280;46462;32.608;-117.032;2023-05-21T07:24:36;99634.43;;;24.25;48.30
60646;BME280;46462;32.608;-117.032;2023-05-21T07:27:06;99628.20;;;24.29;48.17
60646;BME280;46462;32.608;-117.032;2023-05-21T07:29:37;99625.17;;;24.27;48.18
60646;BME280;46462;32.608;-117.032;2023-05-21T07:32:08;99626.23;;;24.28;48.14
60646;BME280;46462;32.608;-117.032;2023-05-21T07:34:38;99627.67;;;24.28;48.14
60646;BME280;46462;32.608;-117.032;2023-05-21T07:37:09;99626.11;;;24.26;48.09
60646;BME280;46462;32.608;-117.032;2023-05-21T07:39:40;99620.44;;;24.25;48.18
60646;BME280;46462;32.608;-117.032;2023-05-21T07:42:10;99610.16;;;24.24;48.11
60646;BME280;46462;32.608;-117.032;2023-05-21T07:44:41;99608.84;;;24.21;48.17
60646;BME280;46462;32.608;-117.032;2023-05-21T07:47:12;99607.59;;;24.18;48.16
60646;BME280;46462;32.608;-117.032;2023-05-21T07:49:42;99607.46;;;24.15;48.24
60646;BME280;46462;32.608;-117.032;2023-05-21T07:52:13;99603.41;;;24.13;48.31
60646;BME280;46462;32.608;-117.032;2023-05-21T07:54:44;99594.62;;;24.12;48.28
60646;BME280;46462;32.608;-117.032;2023-05-21T07:57:14;99593.24;;;24.13;48.21
60646;BME280;46462;32.608;-117.032;2023-05-21T07:59:45;99597.08;;;24.22;47.96
60646;BME280;46462;32.608;-117.032;2023-05-21T08:02:16;99598.77;;;24.28;47.77
60646;BME280;46462;32.608;-117.032;2023-05-21T08:04:46;99593.72;;;24.29;47.66
60646;BME280;46462;32.608;-117.032;2023-05-21T08:07:17;99589.60;;;24.20;47.85
60646;BME280;46462;32.608;-117.032;2023-05-21T08:09:48;99591.63;;;24.30;47.61
60646;BME280;46462;32.608;-117.032;2023-05-21T08:12:19;99589.87;;;24.34;47.46
60646;BME280;46462;32.608;-117.032;2023-05-21T08:14:49;99586.98;;;24.28;47.64
60646;BME280;46462;32.608;-117.032;2023-05-21T08:17:20;99585.16;;;24.24;47.69
60646;BME280;46462;32.608;-117.032;2023-05-21T08:19:51;99578.49;;;24.26;47.60
60646;BME280;46462;32.608;-117.032;2023-05-21T08:22:21;99572.11;;;24.32;47.42
60646;BME280;46462;32.608;-117.032;2023-05-21T08:24:52;99571.98;;;24.29;47.47
60646;BME280;46462;32.608;-117.032;2023-05-21T08:27:23;99569.87;;;24.32;47.36
60646;BME280;46462;32.608;-117.032;2023-05-21T08:29:54;99567.58;;;24.25;47.55
60646;BME280;46462;32.608;-117.032;2023-05-21T08:32:24;99566.19;;;24.21;47.63
60646;BME280;46462;32.608;-117.032;2023-05-21T08:34:55;99564.16;;;24.16;47.73
60646;BME280;46462;32.608;-117.032;2023-05-21T08:37:26;99557.97;;;24.16;47.69
60646;BME280;46462;32.608;-117.032;2023-05-21T08:39:56;99555.19;;;24.15;47.73
60646;BME280;46462;32.608;-117.032;2023-05-21T08:42:33;99557.35;;;24.12;47.77
60646;BME280;46462;32.608;-117.032;2023-05-21T08:44:59;99557.67;;;24.14;47.68
60646;BME280;46462;32.608;-117.032;2023-05-21T08:47:31;99560.41;;;24.14;47.68
60646;BME280;46462;32.608;-117.032;2023-05-21T08:49:59;99564.31;;;24.12;47.72
60646;BME280;46462;32.608;-117.032;2023-05-21T08:52:30;99569.14;;;24.16;47.68
60646;BME280;46462;32.608;-117.032;2023-05-21T08:55:01;99571.06;;;24.19;47.57
60646;BME280;46462;32.608;-117.032;2023-05-21T08:57:31;99578.68;;;24.20;47.42
60646;BME280;46462;32.608;-117.032;2023-05-21T09:00:03;99583.90;;;24.25;47.28
60646;BME280;46462;32.608;-117.032;2023-05-21T09:02:34;99588.23;;;24.23;47.27
60646;BME280;46462;32.608;-117.032;2023-05-21T09:05:08;99590.94;;;24.25;47.23
60646;BME280;46462;32.608;-117.032;2023-05-21T09:07:41;99588.51;;;24.20;47.30
60646;BME280;46462;32.608;-117.032;2023-05-21T09:10:10;99588.25;;;24.12;47.47
60646;BME280;46462;32.608;-117.032;2023-05-21T09:12:38;99593.02;;;24.17;47.33
60646;BME280;46462;32.608;-117.032;2023-05-21T09:15:08;99586.45;;;24.14;47.49
60646;BME280;46462;32.608;-117.032;2023-05-21T09:17:38;99582.48;;;24.14;47.47
60646;BME280;46462;32.608;-117.032;2023-05-21T09:20:11;99586.82;;;24.18;47.30
60646;BME280;46462;32.608;-117.032;2023-05-21T09:22:40;99586.95;;;24.15;47.32
60646;BME280;46462;32.608;-117.032;2023-05-21T09:25:11;99583.69;;;24.11;47.49
60646;BME280;46462;32.608;-117.032;2023-05-21T09:27:41;99579.34;;;24.16;47.34
60646;BME280;46462;32.608;-117.032;2023-05-21T09:30:13;99576.68;;;24.10;47.50
60646;BME280;46462;32.608;-117.032;2023-05-21T09:32:43;99574.12;;;24.16;47.35
60646;BME280;46462;32.608;-117.032;2023-05-21T09:35:14;99568.89;;;24.21;47.23
60646;BME280;46462;32.608;-117.032;2023-05-21T09:37:46;99571.54;;;24.27;47.01
60646;BME280;46462;32.608;-117.032;2023-05-21T09:40:16;99570.17;;;24.18;47.12
60646;BME280;46462;32.608;-117.032;2023-05-21T09:42:47;99567.31;;;24.15;47.15
60646;BME280;46462;32.608;-117.032;2023-05-21T09:45:20;99560.03;;;24.18;47.10
60646;BME280;46462;32.608;-117.032;2023-05-21T09:47:47;99556.87;;;24.12;47.25
60646;BME280;46462;32.608;-117.032;2023-05-21T09:50:19;99557.88;;;24.01;47.59
60646;BME280;46462;32.608;-117.032;2023-05-21T09:52:48;99559.11;;;24.02;47.53
60646;BME280;46462;32.608;-117.032;2023-05-21T09:55:22;99559.22;;;24.00;47.57
60646;BME280;46462;32.608;-117.032;2023-05-21T09:57:50;99558.06;;;24.15;47.16
60646;BME280;46462;32.608;-117.032;2023-05-21T10:00:21;99556.52;;;24.17;47.03
60646;BME280;46462;32.608;-117.032;2023-05-21T10:02:54;99553.49;;;24.13;47.06
60646;BME280;46462;32.608;-117.032;2023-05-21T10:05:25;99550.86;;;24.16;47.00
60646;BME280;46462;32.608;-117.032;2023-05-21T10:07:53;99547.91;;;24.30;46.62
60646;BME280;46462;32.608;-117.032;2023-05-21T10:10:23;99550.30;;;24.36;46.40
60646;BME280;46462;32.608;-117.032;2023-05-21T10:12:56;99550.10;;;24.31;46.46
60646;BME280;46462;32.608;-117.032;2023-05-21T10:15:24;99549.00;;;24.24;46.57
60646;BME280;46462;32.608;-117.032;2023-05-21T10:17:55;99547.75;;;24.19;46.68
60646;BME280;46462;32.608;-117.032;2023-05-21T10:20:25;99545.06;;;24.10;46.85
60646;BME280;46462;32.608;-117.032;2023-05-21T10:22:56;99541.30;;;24.18;46.70
60646;BME280;46462;32.608;-117.032;2023-05-21T10:25:28;99537.74;;;24.08;46.91
60646;BME280;46462;32.608;-117.032;2023-05-21T10:27:57;99540.08;;;24.09;46.87
60646;BME280;46462;32.608;-117.032;2023-05-21T10:30:28;99539.55;;;24.06;46.84
60646;BME280;46462;32.608;-117.032;2023-05-21T10:32:59;99540.57;;;24.01;47.05
60646;BME280;46462;32.608;-117.032;2023-05-21T10:35:30;99540.57;;;23.96;47.23
60646;BME280;46462;32.608;-117.032;2023-05-21T10:38:04;99537.46;;;23.98;47.11
60646;BME280;46462;32.608;-117.032;2023-05-21T10:40:31;99532.39;;;23.97;47.17
60646;BME280;46462;32.608;-117.032;2023-05-21T10:43:16;99529.32;;;24.03;46.91
60646;BME280;46462;32.608;-117.032;2023-05-21T10:45:44;99525.85;;;24.00;47.02
60646;BME280;46462;32.608;-117.032;2023-05-21T10:48:14;99522.06;;;23.99;46.91
60646;BME280;46462;32.608;-117.032;2023-05-21T10:50:43;99524.06;;;24.08;46.74
60646;BME280;46462;32.608;-117.032;2023-05-21T10:53:12;99527.85;;;24.04;46.90
60646;BME280;46462;32.608;-117.032;2023-05-21T10:55:45;99528.73;;;24.05;46.91
60646;BME280;46462;32.608;-117.032;2023-05-21T11:00:37;99527.87;;;24.12;46.80
60646;BME280;46462;32.608;-117.032;2023-05-21T11:03:08;99529.02;;;24.23;46.51
60646;BME280;46462;32.608;-117.032;2023-05-21T11:05:39;99527.21;;;24.13;46.70
60646;BME280;46462;32.608;-117.032;2023-05-21T11:10:40;99518.07;;;24.14;46.57
60646;BME280;46462;32.608;-117.032;2023-05-21T11:13:12;99518.81;;;24.16;46.39
60646;BME280;46462;32.608;-117.032;2023-05-21T11:18:13;99519.18;;;24.23;46.25
60646;BME280;46462;32.608;-117.032;2023-05-21T11:20:49;99516.20;;;24.11;46.50
60646;BME280;46462;32.608;-117.032;2023-05-21T11:23:13;99513.54;;;24.17;46.37
60646;BME280;46462;32.608;-117.032;2023-05-21T11:25:44;99513.43;;;24.17;46.33
60646;BME280;46462;32.608;-117.032;2023-05-21T11:28:14;99513.82;;;24.15;46.21
60646;BME280;46462;32.608;-117.032;2023-05-21T11:33:19;99516.08;;;24.07;46.39
60646;BME280;46462;32.608;-117.032;2023-05-21T11:38:17;99514.59;;;24.10;46.28
60646;BME280;46462;32.608;-117.032;2023-05-21T11:40:51;99516.63;;;24.17;46.06
60646;BME280;46462;32.608;-117.032;2023-05-21T11:43:18;99509.27;;;24.18;45.99
60646;BME280;46462;32.608;-117.032;2023-05-21T11:45:52;99508.17;;;24.11;46.09
60646;BME280;46462;32.608;-117.032;2023-05-21T11:48:21;99510.08;;;24.06;46.27
60646;BME280;46462;32.608;-117.032;2023-05-21T11:50:50;99510.47;;;24.02;46.31
60646;BME280;46462;32.608;-117.032;2023-05-21T11:53:21;99506.32;;;23.94;46.48
60646;BME280;46462;32.608;-117.032;2023-05-21T11:55:52;99507.88;;;24.01;46.37
60646;BME280;46462;32.608;-117.032;2023-05-21T11:58:22;99504.62;;;24.03;46.31
60646;BME280;46462;32.608;-117.032;2023-05-21T12:00:53;99505.80;;;24.12;45.98
60646;BME280;46462;32.608;-117.032;2023-05-21T12:03:24;99505.23;;;24.17;45.84
60646;BME280;46462;32.608;-117.032;2023-05-21T12:06:03;99504.96;;;24.04;46.08
60646;BME280;46462;32.608;-117.032;2023-05-21T12:08:25;99502.50;;;24.05;46.20
60646;BME280;46462;32.608;-117.032;2023-05-21T12:10:58;99500.62;;;24.12;45.83
60646;BME280;46462;32.608;-117.032;2023-05-21T12:13:27;99501.70;;;24.10;45.81
60646;BME280;46462;32.608;-117.032;2023-05-21T12:15:58;99503.38;;;24.16;45.66
60646;BME280;46462;32.608;-117.032;2023-05-21T12:18:29;99504.11;;;24.12;45.75
60646;BME280;46462;32.608;-117.032;2023-05-21T12:21:00;99502.95;;;24.06;45.94
60646;BME280;46462;32.608;-117.032;2023-05-21T12:23:30;99502.48;;;24.06;45.98
60646;BME280;46462;32.608;-117.032;2023-05-21T12:26:01;99501.80;;;24.16;45.62
60646;BME280;46462;32.608;-117.032;2023-05-21T12:28:31;99499.50;;;24.17;45.54
60646;BME280;46462;32.608;-117.032;2023-05-21T12:31:02;99498.31;;;24.09;45.71
60646;BME280;46462;32.608;-117.032;2023-05-21T12:33:34;99498.77;;;24.12;45.59
60646;BME280;46462;32.608;-117.032;2023-05-21T12:36:04;99496.87;;;24.08;45.72
60646;BME280;46462;32.608;-117.032;2023-05-21T12:38:34;99495.85;;;24.05;45.83
60646;BME280;46462;32.608;-117.032;2023-05-21T12:41:06;99493.11;;;24.04;45.88
60646;BME280;46462;32.608;-117.032;2023-05-21T12:43:36;99492.83;;;24.04;45.79
60646;BME280;46462;32.608;-117.032;2023-05-21T12:46:06;99496.88;;;24.10;45.61
60646;BME280;46462;32.608;-117.032;2023-05-21T12:48:37;99496.24;;;24.15;45.40
60646;BME280;46462;32.608;-117.032;2023-05-21T12:51:08;99498.87;;;24.15;45.37
60646;BME280;46462;32.608;-117.032;2023-05-21T12:53:41;99497.35;;;24.20;45.23
60646;BME280;46462;32.608;-117.032;2023-05-21T12:56:10;99499.62;;;24.19;45.28
60646;BME280;46462;32.608;-117.032;2023-05-21T12:58:41;99502.16;;;24.06;45.59